createdAt,value
2017-04-25T00:01:22.902Z,0
2017-04-25T00:03:23.257Z,0
2017-04-25T00:04:23.282Z,0
2017-04-25T00:06:23.317Z,0
2017-04-25T00:07:23.334Z,0
2017-04-25T00:08:23.361Z,0
2017-04-25T00:09:23.380Z,0
2017-04-25T00:10:23.099Z,0
2017-04-25T00:11:23.125Z,0
2017-04-25T00:12:23.447Z,0
2017-04-25T00:13:23.469Z,0
2017-04-25T00:14:38.104Z,0
2017-04-25T00:15:23.516Z,0
2017-04-25T00:16:38.146Z,0
2017-04-25T00:17:38.170Z,0
2017-04-25T00:18:23.580Z,0
2017-04-25T00:19:23.600Z,0
2017-04-25T00:20:38.233Z,0
2017-04-25T00:21:23.648Z,0
2017-04-25T00:22:23.663Z,0
2017-04-25T00:23:23.692Z,0
2017-04-25T00:24:23.708Z,0
2017-04-25T00:25:23.762Z,0
2017-04-25T00:26:23.753Z,0
2017-04-25T00:27:23.774Z,0
2017-04-25T00:28:23.793Z,0
2017-04-25T00:29:23.519Z,0
2017-04-25T00:30:23.835Z,0
2017-04-25T00:31:23.856Z,0
2017-04-25T00:32:38.495Z,0
2017-04-25T00:33:23.905Z,0
2017-04-25T00:34:23.924Z,0
2017-04-25T00:36:38.580Z,0
2017-04-25T00:37:23.985Z,0
2017-04-25T00:38:24.011Z,0
2017-04-25T00:39:24.034Z,0
2017-04-25T00:40:24.048Z,0
2017-04-25T00:41:24.077Z,0
2017-04-25T00:42:23.791Z,0
2017-04-25T00:43:23.813Z,0
2017-04-25T00:44:24.146Z,0
2017-04-25T00:45:24.162Z,0
2017-04-25T00:46:24.178Z,0
2017-04-25T00:47:24.200Z,0
2017-04-25T00:48:24.232Z,0
2017-04-25T00:49:24.248Z,0
2017-04-25T00:50:24.264Z,0
2017-04-25T00:52:38.927Z,0
2017-04-25T00:53:24.337Z,0
2017-04-25T00:54:24.353Z,0
2017-04-25T00:55:38.996Z,0
2017-04-25T00:56:24.393Z,0
2017-04-25T00:57:24.425Z,0
2017-04-25T00:58:24.136Z,0
2017-04-25T00:59:24.161Z,0
2017-04-25T01:00:24.482Z,0
2017-04-25T01:01:24.506Z,0
2017-04-25T01:02:24.524Z,0
2017-04-25T01:04:39.183Z,0
2017-04-25T01:05:24.595Z,0
2017-04-25T01:06:24.611Z,0
2017-04-25T01:07:24.640Z,0
2017-04-25T01:08:39.270Z,0
2017-04-25T01:09:24.677Z,0
2017-04-25T01:10:24.729Z,0
2017-04-25T01:11:24.718Z,0
2017-04-25T01:12:24.736Z,0
2017-04-25T01:13:39.381Z,0
2017-04-25T01:14:24.784Z,0
2017-04-25T01:15:24.802Z,0
2017-04-25T01:16:39.441Z,0
2017-04-25T01:17:24.850Z,0
2017-04-25T01:18:24.870Z,0
2017-04-25T01:19:24.889Z,0
2017-04-25T01:20:39.527Z,0
2017-04-25T01:21:24.937Z,0
2017-04-25T01:23:39.594Z,0
2017-04-25T01:24:25.000Z,0
2017-04-25T01:25:25.019Z,0
2017-04-25T01:26:25.041Z,0
2017-04-25T01:27:25.061Z,0
2017-04-25T01:28:25.081Z,0
2017-04-25T01:29:39.723Z,0
2017-04-25T01:30:25.126Z,0
2017-04-25T01:31:25.148Z,0
2017-04-25T01:32:25.174Z,0
2017-04-25T01:33:25.209Z,0
2017-04-25T01:34:25.220Z,0
2017-04-25T01:35:25.237Z,0
2017-04-25T01:36:25.252Z,0
2017-04-25T01:37:25.275Z,0
2017-04-25T01:38:25.298Z,0
2017-04-25T01:39:25.322Z,0
2017-04-25T01:41:25.386Z,0
2017-04-25T01:42:25.381Z,0
2017-04-25T01:43:25.403Z,0
2017-04-25T01:44:25.427Z,0
2017-04-25T01:45:25.443Z,0
2017-04-25T01:46:25.469Z,0
2017-04-25T01:47:25.491Z,0
2017-04-25T01:48:25.517Z,0
2017-04-25T01:49:25.537Z,0
2017-04-25T01:50:25.549Z,0
2017-04-25T01:51:25.271Z,0
2017-04-25T01:52:25.593Z,0
2017-04-25T01:54:25.647Z,0
2017-04-25T01:55:40.279Z,0
2017-04-25T01:56:25.681Z,0
2017-04-25T01:57:25.396Z,0
2017-04-25T01:58:25.726Z,0
2017-04-25T01:59:25.745Z,0
2017-04-25T02:00:25.460Z,0
2017-04-25T02:01:25.792Z,0
2017-04-25T02:02:25.808Z,0
2017-04-25T02:03:40.445Z,0
2017-04-25T02:04:25.546Z,0
2017-04-25T02:05:25.568Z,0
2017-04-25T02:06:25.893Z,0
2017-04-25T02:07:25.911Z,0
2017-04-25T02:08:25.940Z,0
2017-04-25T02:09:25.959Z,0
2017-04-25T02:10:25.977Z,0
2017-04-25T02:11:40.616Z,0
2017-04-25T02:13:26.043Z,0
2017-04-25T02:14:26.065Z,0
2017-04-25T02:15:26.085Z,0
2017-04-25T02:16:26.104Z,0
2017-04-25T02:17:40.745Z,0
2017-04-25T02:18:26.153Z,0
2017-04-25T02:19:26.171Z,0
2017-04-25T02:20:26.190Z,0
2017-04-25T02:21:26.240Z,0
2017-04-25T02:22:26.233Z,0
2017-04-25T02:23:26.293Z,0
2017-04-25T02:25:26.301Z,0
2017-04-25T02:27:40.657Z,0
2017-04-25T02:29:26.385Z,0
2017-04-25T02:30:26.400Z,0
2017-04-25T02:31:26.125Z,0
2017-04-25T02:32:26.445Z,0
2017-04-25T02:33:26.469Z,0
2017-04-25T02:35:26.506Z,0
2017-04-25T02:36:26.531Z,0
2017-04-25T02:37:41.166Z,0
2017-04-25T02:38:41.192Z,0
2017-04-25T02:39:26.592Z,0
2017-04-25T02:40:26.618Z,0
2017-04-25T02:41:26.640Z,0
2017-04-25T02:42:26.659Z,0
2017-04-25T02:43:41.295Z,0
2017-04-25T02:44:26.699Z,0
2017-04-25T02:45:26.719Z,0
2017-04-25T02:46:26.741Z,0
2017-04-25T02:47:26.765Z,0
2017-04-25T02:48:26.783Z,0
2017-04-25T02:49:26.809Z,0
2017-04-25T02:50:26.822Z,0
2017-04-25T02:51:41.160Z,0
2017-04-25T02:52:41.180Z,0
2017-04-25T02:53:26.891Z,0
2017-04-25T02:54:27.210Z,0
2017-04-25T02:55:26.933Z,0
2017-04-25T02:56:26.951Z,0
2017-04-25T02:58:41.622Z,0
2017-04-25T02:59:27.018Z,0
2017-04-25T03:00:27.039Z,0
2017-04-25T03:01:27.062Z,0
2017-04-25T03:02:26.780Z,0
2017-04-25T03:03:27.104Z,0
2017-04-25T03:04:41.773Z,0
2017-04-25T03:05:41.760Z,0
2017-04-25T03:06:27.164Z,0
2017-04-25T03:07:41.802Z,0
2017-04-25T03:08:27.208Z,0
2017-04-25T03:09:41.847Z,0
2017-04-25T03:10:27.247Z,0
2017-04-25T03:11:27.269Z,0
2017-04-25T03:12:27.291Z,0
2017-04-25T03:14:27.336Z,0
2017-04-25T03:15:27.351Z,0
2017-04-25T03:17:27.396Z,0
2017-04-25T03:18:27.422Z,0
2017-04-25T03:19:27.442Z,0
2017-04-25T03:20:42.079Z,0
2017-04-25T03:21:27.485Z,4
2017-04-25T03:22:27.499Z,4
2017-04-25T03:23:27.530Z,4
2017-04-25T03:24:27.547Z,4
2017-04-25T03:25:27.561Z,0
2017-04-25T03:26:27.617Z,0
2017-04-25T03:28:27.635Z,4
2017-04-25T03:30:42.287Z,4
2017-04-25T03:31:27.692Z,4
2017-04-25T03:32:27.714Z,8
2017-04-25T03:33:27.743Z,8
2017-04-25T03:34:27.757Z,8
2017-04-25T03:35:27.775Z,12
2017-04-25T03:36:27.796Z,16
2017-04-25T03:37:27.845Z,16
2017-04-25T03:38:27.837Z,20
2017-04-25T03:39:27.861Z,20
2017-04-25T03:40:42.495Z,20
2017-04-25T03:41:27.899Z,24
2017-04-25T03:42:28.221Z,24
2017-04-25T03:43:27.949Z,28
2017-04-25T03:44:42.580Z,28
2017-04-25T03:45:27.990Z,32
2017-04-25T03:46:42.620Z,36
2017-04-25T03:47:28.027Z,40
2017-04-25T03:48:28.051Z,44
2017-04-25T03:49:28.070Z,52
2017-04-25T03:50:28.089Z,64
2017-04-25T03:51:28.109Z,72
2017-04-25T03:52:28.131Z,80
2017-04-25T03:53:28.158Z,92
2017-04-25T03:54:42.791Z,96
2017-04-25T03:55:28.193Z,100
2017-04-25T03:56:42.832Z,108
2017-04-25T03:57:27.933Z,112
2017-04-25T03:58:28.272Z,112
2017-04-25T03:59:28.279Z,116
2017-04-25T04:00:28.300Z,124
2017-04-25T04:02:42.659Z,144
2017-04-25T04:03:28.366Z,148
2017-04-25T04:04:28.395Z,156
2017-04-25T04:05:28.105Z,160
2017-04-25T04:06:43.047Z,160
2017-04-25T04:07:28.145Z,160
2017-04-25T04:08:28.471Z,160
2017-04-25T04:10:28.508Z,176
2017-04-25T04:11:28.531Z,184
2017-04-25T04:12:28.552Z,192
2017-04-25T04:13:28.268Z,208
2017-04-25T04:15:43.228Z,284
2017-04-25T04:16:28.635Z,304
2017-04-25T04:17:28.656Z,332
2017-04-25T04:18:43.298Z,364
2017-04-25T04:19:28.698Z,392
2017-04-25T04:20:28.723Z,416
2017-04-25T04:21:28.738Z,440
2017-04-25T04:22:28.454Z,432
2017-04-25T04:23:28.780Z,408
2017-04-25T04:24:28.800Z,388
2017-04-25T04:25:28.822Z,384
2017-04-25T04:26:28.843Z,408
2017-04-25T04:27:43.480Z,480
2017-04-25T04:28:43.513Z,556
2017-04-25T04:29:43.523Z,636
2017-04-25T04:30:43.547Z,704
2017-04-25T04:31:28.949Z,760
2017-04-25T04:33:43.608Z,840
2017-04-25T04:34:29.020Z,820
2017-04-25T04:35:29.030Z,816
2017-04-25T04:37:29.080Z,888
2017-04-25T04:38:29.096Z,920
2017-04-25T04:39:29.117Z,932
2017-04-25T04:40:29.142Z,940
2017-04-25T04:41:43.775Z,956
2017-04-25T04:42:29.180Z,988
2017-04-25T04:43:29.205Z,1024
2017-04-25T04:44:29.227Z,1072
2017-04-25T04:46:43.880Z,1168
2017-04-25T04:47:29.288Z,1200
2017-04-25T04:49:29.330Z,1236
2017-04-25T04:50:29.346Z,1264
2017-04-25T04:51:29.368Z,1272
2017-04-25T04:52:29.391Z,1264
2017-04-25T04:53:29.411Z,1196
2017-04-25T04:54:29.436Z,1128
2017-04-25T04:55:29.453Z,1076
2017-04-25T04:56:29.471Z,1048
2017-04-25T04:57:29.499Z,1076
2017-04-25T04:58:44.133Z,1120
2017-04-25T04:59:44.156Z,1080
2017-04-25T05:00:29.558Z,1056
2017-04-25T05:01:29.589Z,1088
2017-04-25T05:02:29.600Z,1152
2017-04-25T05:03:29.622Z,1196
2017-04-25T05:04:29.645Z,1196
2017-04-25T05:05:44.281Z,1176
2017-04-25T05:06:29.683Z,1188
2017-04-25T05:07:29.705Z,1228
2017-04-25T05:08:29.729Z,1324
2017-04-25T05:09:29.748Z,1464
2017-04-25T05:10:29.770Z,1568
2017-04-25T05:11:29.791Z,1700
2017-04-25T05:12:29.813Z,1868
2017-04-25T05:13:29.834Z,1960
2017-04-25T05:14:29.853Z,2008
2017-04-25T05:15:29.870Z,2004
2017-04-25T05:16:29.898Z,1952
2017-04-25T05:17:44.534Z,1912
2017-04-25T05:18:29.973Z,1912
2017-04-25T05:21:44.916Z,2132
2017-04-25T05:22:30.026Z,2224
2017-04-25T05:23:30.043Z,2380
2017-04-25T05:24:44.702Z,2584
2017-04-25T05:25:30.088Z,2652
2017-04-25T05:26:30.111Z,2636
2017-04-25T05:28:30.158Z,2324
2017-04-25T05:29:30.173Z,2236
2017-04-25T05:30:30.196Z,2172
2017-04-25T05:31:30.213Z,2200
2017-04-25T05:34:30.279Z,2204
2017-04-25T05:36:30.320Z,2100
2017-04-25T05:37:44.958Z,2296
2017-04-25T05:38:30.366Z,2472
2017-04-25T05:39:30.387Z,2700
2017-04-25T05:40:30.410Z,3000
2017-04-25T05:41:30.431Z,3432
2017-04-25T05:42:30.453Z,3840
2017-04-25T05:43:30.471Z,4212
2017-04-25T05:44:30.501Z,4688
2017-04-25T05:45:30.513Z,5432
2017-04-25T05:46:45.151Z,6336
2017-04-25T05:47:30.558Z,6784
2017-04-25T05:48:45.195Z,7184
2017-04-25T05:49:30.600Z,7360
2017-04-25T05:50:30.620Z,7856
2017-04-25T05:51:30.640Z,8488
2017-04-25T05:52:30.664Z,9120
2017-04-25T05:53:45.301Z,10492
2017-04-25T05:54:30.709Z,10968
2017-04-25T05:55:30.730Z,9792
2017-04-25T05:56:30.751Z,10016
2017-04-25T05:57:30.775Z,9792
2017-04-25T05:58:30.798Z,9708
2017-04-25T05:59:30.819Z,9688
2017-04-25T06:00:30.839Z,10168
2017-04-25T06:01:45.478Z,12328
2017-04-25T06:02:30.888Z,12952
2017-04-25T06:03:30.908Z,14652
2017-04-25T06:04:45.547Z,19328
2017-04-25T06:05:45.567Z,22848
2017-04-25T06:06:30.974Z,24320
2017-04-25T06:07:31.006Z,25664
2017-04-25T06:08:45.645Z,24640
2017-04-25T06:09:31.050Z,17408
2017-04-25T06:10:31.066Z,20896
2017-04-25T06:11:31.088Z,18336
2017-04-25T06:12:31.117Z,18592
2017-04-25T06:13:31.142Z,18304
2017-04-25T06:14:30.858Z,18816
2017-04-25T06:15:31.200Z,14720
2017-04-25T06:16:31.207Z,14484
2017-04-25T06:17:31.239Z,12308
2017-04-25T06:18:31.260Z,11104
2017-04-25T06:19:45.898Z,10080
2017-04-25T06:20:31.306Z,9604
2017-04-25T06:22:31.352Z,8184
2017-04-25T06:23:31.379Z,7812
2017-04-25T06:24:31.401Z,7788
2017-04-25T06:26:31.454Z,7848
2017-04-25T06:27:31.471Z,7956
2017-04-25T06:29:31.522Z,7964
2017-04-25T06:30:31.544Z,7976
2017-04-25T06:31:31.566Z,7908
2017-04-25T06:32:46.231Z,7732
2017-04-25T06:33:31.312Z,7652
2017-04-25T06:34:31.639Z,7740
2017-04-25T06:35:31.686Z,7916
2017-04-25T06:36:46.301Z,8244
2017-04-25T06:37:31.720Z,8488
2017-04-25T06:38:31.740Z,9056
2017-04-25T06:39:31.767Z,10088
2017-04-25T06:40:46.399Z,10440
2017-04-25T06:42:31.832Z,9556
2017-04-25T06:43:31.854Z,9404
2017-04-25T06:44:31.886Z,9528
2017-04-25T06:45:46.519Z,9700
2017-04-25T06:46:31.926Z,9804
2017-04-25T06:47:46.565Z,10204
2017-04-25T06:48:46.587Z,10896
2017-04-25T06:52:32.078Z,10960
2017-04-25T06:53:32.108Z,15228
2017-04-25T06:54:32.122Z,18784
2017-04-25T06:55:31.831Z,21536
2017-04-25T06:56:46.472Z,23840
2017-04-25T06:57:31.882Z,26560
2017-04-25T06:58:31.600Z,25568
2017-04-25T06:59:31.929Z,29888
2017-04-25T07:00:31.654Z,26784
2017-04-25T07:01:31.977Z,23232
2017-04-25T07:02:32.004Z,17984
2017-04-25T07:03:32.366Z,16864
2017-04-25T07:04:32.357Z,13872
2017-04-25T07:05:46.996Z,10932
2017-04-25T07:06:32.401Z,10168
2017-04-25T07:07:32.429Z,9152
2017-04-25T07:08:32.455Z,6192
2017-04-25T07:10:32.501Z,5108
2017-04-25T07:11:32.529Z,4368
2017-04-25T07:12:47.165Z,3564
2017-04-25T07:13:32.578Z,3724
2017-04-25T07:14:32.606Z,2972
2017-04-25T07:15:32.621Z,2520
2017-04-25T07:16:32.345Z,2632
2017-04-25T07:17:32.672Z,2372
2017-04-25T07:18:32.395Z,1980
2017-04-25T07:19:32.422Z,2040
2017-04-25T07:20:32.744Z,2344
2017-04-25T07:22:32.805Z,1596
2017-04-25T07:23:32.841Z,1592
2017-04-25T07:24:32.844Z,1672
2017-04-25T07:26:32.889Z,1536
2017-04-25T07:27:32.909Z,1340
2017-04-25T07:28:47.548Z,1204
2017-04-25T07:29:32.954Z,1208
2017-04-25T07:30:32.979Z,1360
2017-04-25T07:31:33.000Z,1256
2017-04-25T07:32:33.026Z,1248
2017-04-25T07:33:33.050Z,1316
2017-04-25T07:34:33.068Z,1296
2017-04-25T07:35:33.098Z,1268
2017-04-25T07:36:33.114Z,1276
2017-04-25T07:37:33.140Z,1280
2017-04-25T07:38:33.161Z,1288
2017-04-25T07:39:33.183Z,1460
2017-04-25T07:40:47.522Z,1556
2017-04-25T07:41:33.227Z,1692
2017-04-25T07:43:47.889Z,2432
2017-04-25T07:44:33.297Z,2836
2017-04-25T07:45:33.317Z,3080
2017-04-25T07:46:33.343Z,3036
2017-04-25T07:47:33.362Z,3068
2017-04-25T07:48:33.387Z,3096
2017-04-25T07:49:33.411Z,2848
2017-04-25T07:50:33.124Z,2524
2017-04-25T07:51:33.470Z,2324
2017-04-25T07:52:33.168Z,2248
2017-04-25T07:53:33.506Z,2272
2017-04-25T07:54:33.516Z,2256
2017-04-25T07:56:48.177Z,2412
2017-04-25T07:57:33.283Z,2436
2017-04-25T07:59:33.321Z,2728
2017-04-25T08:00:33.647Z,2624
2017-04-25T08:01:33.668Z,2808
2017-04-25T08:02:33.695Z,2916
2017-04-25T08:03:33.720Z,2708
2017-04-25T08:04:33.732Z,2336
2017-04-25T08:05:33.761Z,2128
2017-04-25T08:06:33.774Z,2172
2017-04-25T08:07:48.415Z,2168
2017-04-25T08:08:48.438Z,2392
2017-04-25T08:09:33.842Z,2440
2017-04-25T08:10:33.861Z,2528
2017-04-25T08:11:48.500Z,2560
2017-04-25T08:13:33.925Z,2620
2017-04-25T08:14:33.951Z,2784
2017-04-25T08:15:48.282Z,3036
2017-04-25T08:16:33.995Z,3304
2017-04-25T08:17:34.018Z,3776
2017-04-25T08:18:34.034Z,4192
2017-04-25T08:19:48.676Z,4640
2017-04-25T08:20:34.075Z,4828
2017-04-25T08:21:34.098Z,4992
2017-04-25T08:23:34.141Z,4904
2017-04-25T08:24:33.893Z,4968
2017-04-25T08:25:34.192Z,5132
2017-04-25T08:26:34.207Z,5152
2017-04-25T08:27:34.228Z,5340
2017-04-25T08:28:34.251Z,5036
2017-04-25T08:30:34.290Z,5416
2017-04-25T08:31:48.931Z,5780
2017-04-25T08:32:34.355Z,5668
2017-04-25T08:33:34.358Z,5496
2017-04-25T08:34:34.382Z,5428
2017-04-25T08:35:34.404Z,5324
2017-04-25T08:37:34.139Z,4676
2017-04-25T08:38:34.464Z,4588
2017-04-25T08:39:34.485Z,4464
2017-04-25T08:40:34.508Z,4044
2017-04-25T08:41:49.144Z,3284
2017-04-25T08:42:34.555Z,3184
2017-04-25T08:43:34.574Z,3240
2017-04-25T08:44:34.594Z,2920
2017-04-25T08:45:34.615Z,2360
2017-04-25T08:46:34.636Z,2168
2017-04-25T08:47:49.283Z,2404
2017-04-25T08:48:34.686Z,2392
2017-04-25T08:49:34.705Z,2404
2017-04-25T08:50:34.723Z,2184
2017-04-25T08:51:34.743Z,2068
2017-04-25T08:52:34.764Z,2300
2017-04-25T08:53:34.788Z,2492
2017-04-25T08:54:34.810Z,2124
2017-04-25T08:55:49.449Z,2104
2017-04-25T08:56:34.857Z,2292
2017-04-25T08:58:34.898Z,2396
2017-04-25T08:59:34.915Z,2404
2017-04-25T09:00:34.943Z,2548
2017-04-25T09:01:34.962Z,2964
2017-04-25T09:02:34.982Z,3660
2017-04-25T09:03:49.631Z,3300
2017-04-25T09:04:35.027Z,3076
2017-04-25T09:05:34.743Z,3172
2017-04-25T09:06:35.066Z,3232
2017-04-25T09:07:35.087Z,3160
2017-04-25T09:08:35.109Z,3036
2017-04-25T09:09:34.826Z,2920
2017-04-25T09:10:35.153Z,3200
2017-04-25T09:11:35.175Z,3996
2017-04-25T09:12:49.810Z,4324
2017-04-25T09:13:49.831Z,5096
2017-04-25T09:14:35.240Z,5876
2017-04-25T09:16:35.292Z,6160
2017-04-25T09:18:49.941Z,6504
2017-04-25T09:19:35.042Z,7336
2017-04-25T09:20:35.374Z,7464
2017-04-25T09:21:35.394Z,6964
2017-04-25T09:22:35.409Z,5980
2017-04-25T09:23:35.439Z,5800
2017-04-25T09:24:35.454Z,5420
2017-04-25T09:25:35.475Z,6088
2017-04-25T09:26:35.494Z,6652
2017-04-25T09:27:35.215Z,7072
2017-04-25T09:28:35.244Z,6956
2017-04-25T09:29:35.560Z,6836
2017-04-25T09:30:35.583Z,6596
2017-04-25T09:31:35.300Z,6364
2017-04-25T09:32:35.626Z,5928
2017-04-25T09:33:35.645Z,5648
2017-04-25T09:34:35.667Z,5348
2017-04-25T09:35:35.696Z,6068
2017-04-25T09:36:35.712Z,5236
2017-04-25T09:37:35.742Z,4848
2017-04-25T09:38:35.758Z,4928
2017-04-25T09:39:35.777Z,3652
2017-04-25T09:40:35.804Z,3052
2017-04-25T09:41:50.440Z,3108
2017-04-25T09:42:35.841Z,3264
2017-04-25T09:43:35.866Z,3716
2017-04-25T09:44:35.888Z,4040
2017-04-25T09:45:35.908Z,4116
2017-04-25T09:46:35.929Z,4000
2017-04-25T09:47:50.566Z,5376
2017-04-25T09:48:35.974Z,6072
2017-04-25T09:50:50.634Z,5188
2017-04-25T09:51:36.041Z,4676
2017-04-25T09:52:36.074Z,4820
2017-04-25T09:53:36.093Z,5664
2017-04-25T09:54:36.150Z,6640
2017-04-25T09:55:36.133Z,7444
2017-04-25T09:56:36.175Z,8212
2017-04-25T09:57:50.787Z,7504
2017-04-25T09:58:36.190Z,7948
2017-04-25T10:00:36.229Z,8000
2017-04-25T10:01:36.256Z,8420
2017-04-25T10:02:36.276Z,8572
2017-04-25T10:03:36.308Z,7864
2017-04-25T10:04:36.027Z,8028
2017-04-25T10:05:36.340Z,8976
2017-04-25T10:06:50.979Z,9184
2017-04-25T10:07:36.391Z,8636
2017-04-25T10:08:36.411Z,9328
2017-04-25T10:09:36.428Z,10748
2017-04-25T10:10:36.147Z,11672
2017-04-25T10:11:36.473Z,12296
2017-04-25T10:12:36.498Z,13284
2017-04-25T10:13:36.522Z,12396
2017-04-25T10:14:51.157Z,12532
2017-04-25T10:15:36.562Z,13884
2017-04-25T10:16:51.201Z,15336
2017-04-25T10:17:51.226Z,14704
2017-04-25T10:18:51.251Z,14104
2017-04-25T10:19:51.270Z,14156
2017-04-25T10:20:36.677Z,13628
2017-04-25T10:21:36.696Z,13568
2017-04-25T10:22:51.030Z,13276
2017-04-25T10:23:36.440Z,12032
2017-04-25T10:24:36.765Z,11556
2017-04-25T10:25:36.792Z,11836
2017-04-25T10:26:36.808Z,11700
2017-04-25T10:27:36.833Z,11004
2017-04-25T10:28:36.857Z,11564
2017-04-25T10:29:36.878Z,12044
2017-04-25T10:30:36.900Z,11104
2017-04-25T10:31:36.926Z,12064
2017-04-25T10:32:36.950Z,13056
2017-04-25T10:33:51.586Z,12816
2017-04-25T10:34:36.995Z,13156
2017-04-25T10:35:37.014Z,12236
2017-04-25T10:36:36.736Z,11796
2017-04-25T10:37:37.065Z,12388
2017-04-25T10:38:51.703Z,12376
2017-04-25T10:39:37.110Z,12032
2017-04-25T10:40:37.135Z,11364
2017-04-25T10:41:37.154Z,10668
2017-04-25T10:42:37.177Z,10180
2017-04-25T10:43:51.822Z,8160
2017-04-25T10:44:36.918Z,7380
2017-04-25T10:45:37.252Z,7056
2017-04-25T10:46:36.968Z,6860
2017-04-25T10:47:51.911Z,6240
2017-04-25T10:48:37.015Z,5900
2017-04-25T10:49:51.955Z,5908
2017-04-25T10:50:51.978Z,5556
2017-04-25T10:51:52.000Z,5836
2017-04-25T10:52:37.414Z,5956
2017-04-25T10:53:52.052Z,5100
2017-04-25T10:54:37.458Z,4620
2017-04-25T10:55:37.475Z,4496
2017-04-25T10:56:37.512Z,4352
2017-04-25T10:57:37.523Z,4768
2017-04-25T10:58:37.548Z,7020
2017-04-25T10:59:37.570Z,8060
2017-04-25T11:00:37.296Z,9148
2017-04-25T11:01:37.617Z,9236
2017-04-25T11:02:52.259Z,9820
2017-04-25T11:03:52.277Z,10216
2017-04-25T11:04:37.683Z,10492
2017-04-25T11:05:37.703Z,11032
2017-04-25T11:06:37.736Z,11872
2017-04-25T11:07:37.753Z,11692
2017-04-25T11:09:37.796Z,9624
2017-04-25T11:10:37.822Z,8788
2017-04-25T11:11:37.847Z,8644
2017-04-25T11:12:37.874Z,8816
2017-04-25T11:13:37.885Z,9652
2017-04-25T11:14:37.910Z,9340
2017-04-25T11:15:37.930Z,8688
2017-04-25T11:16:52.574Z,8448
2017-04-25T11:17:37.978Z,9136
2017-04-25T11:18:38.005Z,10856
2017-04-25T11:19:38.025Z,11560
2017-04-25T11:20:52.665Z,9816
2017-04-25T11:21:52.688Z,8792
2017-04-25T11:23:38.123Z,9556
2017-04-25T11:25:52.778Z,11116
2017-04-25T11:26:38.187Z,11104
2017-04-25T11:27:38.211Z,11412
2017-04-25T11:28:38.234Z,10200
2017-04-25T11:29:38.253Z,11084
2017-04-25T11:30:38.276Z,11232
2017-04-25T11:31:38.302Z,11304
2017-04-25T11:32:38.323Z,10868
2017-04-25T11:33:38.351Z,10080
2017-04-25T11:34:38.369Z,9548
2017-04-25T11:35:38.088Z,9336
2017-04-25T11:36:38.417Z,8588
2017-04-25T11:40:38.507Z,8980
2017-04-25T11:41:52.848Z,9308
2017-04-25T11:42:38.558Z,9192
2017-04-25T11:43:38.580Z,8636
2017-04-25T11:44:38.601Z,8564
2017-04-25T11:45:38.321Z,8548
2017-04-25T11:46:38.648Z,8296
2017-04-25T11:47:38.677Z,8304
2017-04-25T11:48:53.313Z,8364
2017-04-25T11:49:38.419Z,7808
2017-04-25T11:50:38.738Z,6416
2017-04-25T11:51:38.772Z,5044
2017-04-25T11:52:38.791Z,4504
2017-04-25T11:53:38.826Z,4112
2017-04-25T11:54:38.834Z,3644
2017-04-25T11:55:38.908Z,3672
2017-04-25T11:56:38.892Z,3596
2017-04-25T11:57:53.524Z,3308
2017-04-25T11:58:38.927Z,3164
2017-04-25T11:59:38.954Z,3564
2017-04-25T12:00:38.972Z,4012
2017-04-25T12:01:38.992Z,4488
2017-04-25T12:02:39.020Z,3612
2017-04-25T12:03:39.042Z,3720
2017-04-25T12:04:39.060Z,4172
2017-04-25T12:05:39.086Z,3980
2017-04-25T12:06:39.106Z,4256
2017-04-25T12:07:39.133Z,5108
2017-04-25T12:08:39.155Z,6000
2017-04-25T12:09:39.198Z,5344
2017-04-25T12:10:39.201Z,4336
2017-04-25T12:11:39.219Z,3636
2017-04-25T12:12:39.246Z,3324
2017-04-25T12:13:53.886Z,3196
2017-04-25T12:14:39.288Z,3148
2017-04-25T12:15:39.009Z,2812
2017-04-25T12:16:39.027Z,2472
2017-04-25T12:17:39.358Z,2560
2017-04-25T12:18:39.377Z,2376
2017-04-25T12:19:39.404Z,2236
2017-04-25T12:20:39.421Z,2056
2017-04-25T12:21:39.441Z,2228
2017-04-25T12:22:39.472Z,2864
2017-04-25T12:23:39.501Z,3820
2017-04-25T12:26:39.556Z,4508
2017-04-25T12:27:39.582Z,4584
2017-04-25T12:28:53.915Z,5184
2017-04-25T12:29:39.623Z,5716
2017-04-25T12:30:39.645Z,6332
2017-04-25T12:31:39.666Z,6608
2017-04-25T12:32:39.690Z,6672
2017-04-25T12:33:39.718Z,6536
2017-04-25T12:34:54.353Z,6220
2017-04-25T12:35:39.756Z,6044
2017-04-25T12:36:39.778Z,5840
2017-04-25T12:37:39.496Z,5780
2017-04-25T12:38:39.829Z,7372
2017-04-25T12:39:39.846Z,9708
2017-04-25T12:40:54.483Z,9572
2017-04-25T12:41:39.886Z,10392
2017-04-25T12:42:39.919Z,10308
2017-04-25T12:43:39.938Z,9468
2017-04-25T12:44:39.960Z,8980
2017-04-25T12:45:39.975Z,8628
2017-04-25T12:46:40.006Z,8024
2017-04-25T12:47:40.022Z,8036
2017-04-25T12:48:40.046Z,9756
2017-04-25T12:49:40.070Z,9564
2017-04-25T12:50:40.090Z,9416
2017-04-25T12:51:39.808Z,9508
2017-04-25T12:52:54.754Z,9404
2017-04-25T12:53:40.158Z,9424
2017-04-25T12:54:40.182Z,9128
2017-04-25T12:55:40.206Z,8868
2017-04-25T12:56:40.228Z,9608
2017-04-25T12:57:40.250Z,10532
2017-04-25T12:58:40.312Z,10844
2017-04-25T13:00:54.939Z,9064
2017-04-25T13:01:40.343Z,8564
2017-04-25T13:02:40.368Z,8004
2017-04-25T13:03:40.390Z,7824
2017-04-25T13:04:55.032Z,7520
2017-04-25T13:05:40.433Z,7136
2017-04-25T13:06:40.461Z,7628
2017-04-25T13:07:40.480Z,7656
2017-04-25T13:08:55.122Z,6624
2017-04-25T13:09:55.143Z,5784
2017-04-25T13:10:55.165Z,5932
2017-04-25T13:11:54.887Z,7616
2017-04-25T13:12:40.596Z,7608
2017-04-25T13:13:40.632Z,7644
2017-04-25T13:14:40.639Z,7724
2017-04-25T13:15:40.675Z,7752
2017-04-25T13:16:55.302Z,7872
2017-04-25T13:17:40.715Z,7380
2017-04-25T13:18:40.733Z,7888
2017-04-25T13:19:40.761Z,7920
2017-04-25T13:20:40.779Z,7964
2017-04-25T13:21:40.191Z,8144
2017-04-25T13:22:55.141Z,6416
2017-04-25T13:23:40.849Z,5536
2017-04-25T13:24:40.882Z,5624
2017-04-25T13:25:40.892Z,6800
2017-04-25T13:26:55.548Z,8208
2017-04-25T13:27:41.201Z,5572
2017-04-25T13:28:55.278Z,5116
2017-04-25T13:29:40.986Z,4896
2017-04-25T13:30:41.007Z,4784
2017-04-25T13:31:40.729Z,4872
2017-04-25T13:32:55.876Z,5724
2017-04-25T13:33:55.703Z,7080
2017-04-25T13:34:40.804Z,6076
2017-04-25T13:35:41.131Z,6364
2017-04-25T13:36:41.146Z,6920
2017-04-25T13:37:41.176Z,6672
2017-04-25T13:38:40.907Z,6484
2017-04-25T13:39:40.964Z,6324
2017-04-25T13:40:42.292Z,6488
2017-04-25T13:41:40.962Z,6548
2017-04-25T13:42:40.383Z,6256
2017-04-25T13:43:41.311Z,5744
2017-04-25T13:44:41.328Z,5544
2017-04-25T13:45:55.970Z,5168
2017-04-25T13:46:41.072Z,4712
2017-04-25T13:47:41.098Z,4268
2017-04-25T13:48:56.247Z,3924
2017-04-25T13:49:41.448Z,3900
2017-04-25T13:50:41.468Z,3948
2017-04-25T13:51:40.578Z,4132
2017-04-25T13:52:40.919Z,4128
2017-04-25T13:54:41.269Z,5000
2017-04-25T13:55:41.580Z,5456
2017-04-25T13:56:56.222Z,6020
2017-04-25T13:57:41.630Z,6836
2017-04-25T13:58:41.654Z,6480
2017-04-25T13:59:41.676Z,7536
2017-04-25T14:00:41.701Z,9932
2017-04-25T14:01:40.806Z,7276
2017-04-25T14:02:40.895Z,7548
2017-04-25T14:03:55.774Z,6772
2017-04-25T14:04:41.788Z,6344
2017-04-25T14:05:41.811Z,8352
2017-04-25T14:06:41.875Z,8252
2017-04-25T14:07:41.856Z,8520
2017-04-25T14:08:41.891Z,8820
2017-04-25T14:09:41.901Z,7164
2017-04-25T14:10:41.925Z,7488
2017-04-25T14:11:41.344Z,8156
2017-04-25T14:12:41.364Z,7948
2017-04-25T14:13:56.311Z,7804
2017-04-25T14:14:41.409Z,7712
2017-04-25T14:15:56.657Z,6172
2017-04-25T14:16:41.460Z,7672
2017-04-25T14:17:41.784Z,5068
2017-04-25T14:18:42.316Z,5060
2017-04-25T14:19:42.136Z,5008
2017-04-25T14:20:42.154Z,5132
2017-04-25T14:21:41.572Z,5448
2017-04-25T14:22:41.609Z,5900
2017-04-25T14:23:41.318Z,5952
2017-04-25T14:24:41.341Z,5908
2017-04-25T14:25:41.358Z,5704
2017-04-25T14:26:56.302Z,5344
2017-04-25T14:27:42.320Z,5312
2017-04-25T14:28:42.338Z,5072
2017-04-25T14:29:42.367Z,4724
2017-04-25T14:30:57.004Z,4560
2017-04-25T14:31:41.798Z,4488
2017-04-25T14:32:41.524Z,4464
2017-04-25T14:33:41.848Z,4516
2017-04-25T14:35:56.810Z,4684
2017-04-25T14:36:42.122Z,4972
2017-04-25T14:37:41.635Z,5220
2017-04-25T14:38:42.611Z,5408
2017-04-25T14:39:42.591Z,5628
2017-04-25T14:40:42.319Z,5816
2017-04-25T14:41:42.635Z,5972
2017-04-25T14:42:42.690Z,6140